Time;durP1;ratioP1;P1;durP2;ratioP2;P2;SDS_P1;SDS_P2;PMS_P1;PMS_P2;Temp;Humidity;BMP_temperature;BMP_pressure;BME280_temperature;BME280_humidity;BME280_pressure;Samples;Min_cycle;Max_cycle;Signal;HPM_P1;HPM_P2
2023/01/08 00:05:00;;;;;;;2.85;2.30;;;;;;;18.68;42.06;102324.31;21091172;28;20105;-61
2023/01/08 00:15:01;;;;;;;1.83;1.58;;;;;;;18.68;41.93;102340.09;21090521;28;20028;-61
2023/01/08 00:25:03;;;;;;;1.92;1.83;;;;;;;18.66;42.00;102359.75;21089247;28;20044;-60
2023/01/08 00:35:05;;;;;;;2.05;1.85;;;;;;;18.65;41.83;102360.84;21088597;28;20470;-60
2023/01/08 00:45:07;;;;;;;1.80;1.70;;;;;;;18.64;42.07;102366.59;21087877;28;20044;-60
2023/01/08 00:55:09;;;;;;;3.05;2.45;;;;;;;18.64;41.87;102364.66;21086501;28;20032;-61
2023/01/08 01:05:15;;;;;;;1.95;1.85;;;;;;;18.61;41.90;102362.38;21085938;28;20101;-62
2023/01/08 01:15:17;;;;;;;2.13;1.92;;;;;;;18.61;42.16;102376.22;21085558;28;20098;-60
2023/01/08 01:25:22;;;;;;;1.90;1.73;;;;;;;18.61;42.18;102359.59;21084581;28;20044;-60
2023/01/08 01:35:23;;;;;;;2.10;1.88;;;;;;;18.62;42.06;102377.06;21084020;28;20048;-60
2023/01/08 01:45:30;;;;;;;1.80;1.65;;;;;;;18.60;41.95;102371.78;21082691;28;20078;-61
2023/01/08 01:55:37;;;;;;;1.80;1.70;;;;;;;18.43;42.17;102345.72;21082436;28;20044;-60
2023/01/08 02:05:42;;;;;;;2.10;1.90;;;;;;;18.57;41.73;102382.47;21081959;28;20043;-61
2023/01/08 02:15:57;;;;;;;2.00;1.80;;;;;;;18.57;41.96;102393.56;21079985;28;20044;-62
2023/01/08 02:26:31;;;;;;;2.42;2.22;;;;;;;18.51;42.26;102398.09;21079821;28;20192;-61
2023/01/08 02:36:39;;;;;;;1.70;1.60;;;;;;;18.45;41.96;102383.22;21079713;28;20031;-61
2023/01/08 02:46:41;;;;;;;1.92;1.80;;;;;;;18.55;41.99;102407.63;21078843;28;20052;-61
2023/01/08 02:56:49;;;;;;;2.10;1.90;;;;;;;18.52;41.84;102399.78;21077553;28;20093;-61
2023/01/08 03:06:51;;;;;;;1.77;1.67;;;;;;;18.53;41.90;102418.13;21036563;28;20044;-61
2023/01/08 03:17:00;;;;;;;1.80;1.63;;;;;;;18.52;41.72;102430.28;21076341;28;20040;-61
2023/01/08 03:27:06;;;;;;;1.98;1.88;;;;;;;18.51;41.70;102439.69;21001538;28;20044;-62
2023/01/08 03:37:08;;;;;;;1.90;1.70;;;;;;;18.50;41.93;102449.06;20991487;28;20075;-61
2023/01/08 03:47:11;;;;;;;1.60;1.50;;;;;;;18.48;41.80;102434.59;20990577;28;20458;-60
2023/01/08 03:57:12;;;;;;;2.03;1.80;;;;;;;18.48;41.74;102451.22;21011096;28;20452;-61
2023/01/08 04:07:13;;;;;;;1.60;1.50;;;;;;;18.46;41.82;102451.47;21074532;28;20044;-61
2023/01/08 04:17:17;;;;;;;1.50;1.40;;;;;;;18.42;41.76;102450.22;21068730;28;20036;-62
2023/01/08 04:27:21;;;;;;;1.70;1.60;;;;;;;18.48;41.77;102451.22;21074063;28;20040;-60
2023/01/08 04:37:23;;;;;;;1.88;1.73;;;;;;;18.45;41.52;102451.66;21078138;28;20028;-61
2023/01/08 04:47:24;;;;;;;1.60;1.50;;;;;;;18.33;41.43;102439.66;21087722;28;20039;-62
2023/01/08 04:57:25;;;;;;;2.03;1.83;;;;;;;18.38;41.65;102446.19;21087007;28;20043;-62
2023/01/08 05:07:27;;;;;;;1.45;1.35;;;;;;;18.39;41.56;102453.44;21085873;28;20040;-61
2023/01/08 05:17:28;;;;;;;1.70;1.60;;;;;;;18.37;41.61;102444.50;21085283;28;20548;-61
2023/01/08 05:27:29;;;;;;;1.60;1.50;;;;;;;18.36;41.87;102459.41;21084761;28;20040;-61
2023/01/08 05:37:36;;;;;;;1.73;1.60;;;;;;;18.36;41.96;102442.78;21083210;28;20065;-61
2023/01/08 05:47:37;;;;;;;1.80;1.70;;;;;;;18.35;42.00;102454.09;21083801;28;20047;-60
2023/01/08 05:57:40;;;;;;;2.42;1.58;;;;;;;18.35;41.58;102459.66;21082378;28;20458;-60
2023/01/08 06:07:41;;;;;;;1.60;1.50;;;;;;;18.14;41.48;102425.72;21081750;28;20051;-61
2023/01/08 06:17:43;;;;;;;1.55;1.45;;;;;;;18.32;41.65;102468.41;21081190;28;20032;-61
2023/01/08 06:27:49;;;;;;;1.80;1.67;;;;;;;18.31;41.65;102473.09;21079537;28;20036;-61
2023/01/08 06:37:50;;;;;;;1.95;1.60;;;;;;;18.29;41.93;102481.66;21079517;28;20051;-62
2023/01/08 06:47:54;;;;;;;1.80;1.58;;;;;;;18.25;41.67;102490.66;21078023;28;20097;-62
2023/01/08 06:58:02;;;;;;;1.60;1.35;;;;;;;18.10;41.49;102477.13;21077286;28;20553;-61
2023/01/08 07:08:04;;;;;;;1.73;1.45;;;;;;;18.26;41.55;102497.88;21077240;28;20111;-61
2023/01/08 07:18:10;;;;;;;1.95;1.65;;;;;;;18.13;41.79;102493.28;21076557;28;20425;-61
2023/01/08 07:28:12;;;;;;;1.83;1.20;;;;;;;18.20;41.36;102527.34;21015095;28;20365;-61
2023/01/08 07:38:13;;;;;;;1.45;1.35;;;;;;;18.23;41.47;102548.19;21008065;28;20040;-61
2023/01/08 07:48:15;;;;;;;1.50;1.40;;;;;;;18.16;41.67;102548.25;21074618;28;20390;-60
2023/01/08 07:58:16;;;;;;;1.70;1.60;;;;;;;18.20;41.84;102566.13;21068820;28;20445;-61
2023/01/08 08:08:18;;;;;;;1.70;1.60;;;;;;;18.18;41.75;102568.25;21078844;28;20051;-62
2023/01/08 08:18:19;;;;;;;1.50;1.40;;;;;;;18.17;41.87;102566.56;21090550;28;20036;-60
2023/01/08 08:28:21;;;;;;;1.63;1.52;;;;;;;18.15;41.40;102571.50;21083279;28;20048;-61
2023/01/08 08:38:25;;;;;;;1.85;1.65;;;;;;;18.15;41.47;102568.72;21088808;28;20032;-60
2023/01/08 08:48:29;;;;;;;1.50;1.40;;;;;;;18.01;41.78;102556.03;21086591;28;20055;-61
2023/01/08 08:58:33;;;;;;;1.42;1.33;;;;;;;18.11;41.31;102567.47;21086337;28;20039;-61
2023/01/08 09:08:35;;;;;;;1.63;1.42;;;;;;;18.11;41.81;102534.22;21080139;28;20051;-61
2023/01/08 09:18:36;;;;;;;1.42;1.33;;;;;;;18.10;41.63;102554.69;21079417;28;20036;-61
2023/01/08 09:28:40;;;;;;;1.60;1.25;;;;;;;18.07;41.66;102535.75;21083984;28;20044;-61
2023/01/08 09:38:43;;;;;;;1.35;1.25;;;;;;;18.09;41.36;102525.28;21083629;28;20101;-61
2023/01/08 09:48:45;;;;;;;1.50;1.40;;;;;;;18.09;41.32;102538.28;21060026;28;20048;-61
2023/01/08 09:58:58;;;;;;;1.58;1.48;;;;;;;18.07;41.40;102538.50;20998601;28;20036;-61
2023/01/08 10:09:03;;;;;;;1.45;1.35;;;;;;;18.03;41.44;102538.09;20997927;28;20048;-61
2023/01/08 10:19:04;;;;;;;1.60;1.35;;;;;;;18.02;41.19;102560.50;20996375;28;20476;-61
2023/01/08 10:29:18;;;;;;;1.55;1.45;;;;;;;17.72;41.60;102525.03;21039036;28;20048;-60
2023/01/08 10:39:47;;;;;;;1.52;1.42;;;;;;;17.97;41.80;102588.00;21014580;28;20101;-61
2023/01/08 10:49:48;;;;;;;1.58;1.48;;;;;;;18.00;41.28;102607.78;21073881;28;20044;-61
2023/01/08 10:59:50;;;;;;;1.23;1.13;;;;;;;17.87;41.19;102584.84;21071903;28;20113;-61
2023/01/08 11:09:52;;;;;;;1.60;1.50;;;;;;;17.98;41.24;102611.88;21076374;28;20040;-61
2023/01/08 11:19:54;;;;;;;1.75;1.65;;;;;;;17.98;41.08;102620.19;21077008;28;20479;-61
2023/01/08 11:30:12;;;;;;;1.50;1.40;;;;;;;17.91;41.35;102622.13;21040467;28;20048;-60
2023/01/08 11:40:17;;;;;;;1.50;1.40;;;;;;;17.96;41.07;102625.06;20993939;28;20040;-61
2023/01/08 11:50:22;;;;;;;1.38;1.27;;;;;;;16.38;41.42;102405.91;21008545;28;20495;-61
2023/01/08 12:00:48;;;;;;;1.50;1.40;;;;;;;17.86;41.34;102621.94;21007429;28;20529;-61
2023/01/08 12:11:06;;;;;;;1.67;1.30;;;;;;;17.64;41.28;102602.84;21012351;28;20037;-60
2023/01/08 12:21:37;;;;;;;1.90;1.70;;;;;;;17.85;41.26;102645.16;21009434;28;20044;-60
2023/01/08 12:31:50;;;;;;;1.98;1.52;;;;;;;17.86;41.01;102644.09;21004576;28;20551;-61
2023/01/08 12:42:02;;;;;;;1.65;1.40;;;;;;;17.85;41.42;102628.53;21004612;28;20040;-60
2023/01/08 12:52:19;;;;;;;2.28;1.63;;;;;;;17.81;41.51;102641.97;21003118;28;20098;-60
2023/01/08 13:02:58;;;;;;;1.73;1.45;;;;;;;17.78;41.23;102673.75;21003286;28;20479;-60
2023/01/08 13:13:07;;;;;;;2.28;1.65;;;;;;;17.82;41.03;102674.13;21002207;28;20020;-60
2023/01/08 13:23:26;;;;;;;1.70;1.60;;;;;;;17.63;41.58;102637.09;21001821;28;20041;-60
2023/01/08 13:33:33;;;;;;;1.70;1.58;;;;;;;17.77;41.28;102652.63;21003564;28;20085;-60
2023/01/08 13:43:38;;;;;;;2.33;1.98;;;;;;;17.73;41.27;102656.94;21000144;28;20037;-60
2023/01/08 13:53:41;;;;;;;2.95;1.88;;;;;;;17.74;41.56;102655.84;20998991;28;20044;-60
2023/01/08 14:03:47;;;;;;;1.63;1.52;;;;;;;17.08;41.30;102550.81;20999660;28;20036;-60
2023/01/08 14:13:49;;;;;;;2.00;1.90;;;;;;;17.59;41.49;102641.38;21081314;28;20156;-60
2023/01/08 14:23:52;;;;;;;2.70;2.13;;;;;;;17.71;41.41;102689.47;21074126;28;20043;-60
2023/01/08 14:33:57;;;;;;;2.20;1.98;;;;;;;17.71;41.25;102686.69;21078488;28;20048;-61
2023/01/08 14:44:01;;;;;;;1.95;1.85;;;;;;;17.70;41.35;102690.53;21078325;28;20044;-61
2023/01/08 14:54:05;;;;;;;1.95;1.85;;;;;;;17.61;41.54;102666.94;21071823;28;20457;-61
2023/01/08 15:04:16;;;;;;;2.80;2.28;;;;;;;17.66;41.65;102680.97;21076341;28;20437;-60
2023/01/08 15:14:23;;;;;;;2.55;2.35;;;;;;;17.70;41.51;102704.38;21075408;28;20044;-60
2023/01/08 15:24:34;;;;;;;2.30;2.10;;;;;;;17.70;41.57;102676.69;21076190;28;20040;-62
2023/01/08 15:34:38;;;;;;;1.90;1.60;;;;;;;17.68;41.62;102673.28;21075830;28;20475;-60
2023/01/08 15:44:42;;;;;;;1.85;1.75;;;;;;;17.70;41.73;102632.41;21075296;28;20412;-61
2023/01/08 15:54:43;;;;;;;2.28;2.08;;;;;;;17.70;41.69;102584.50;21075156;28;20036;-60
2023/01/08 16:04:52;;;;;;;2.28;2.08;;;;;;;17.72;41.41;102608.09;21074481;28;20028;-61
2023/01/08 16:14:54;;;;;;;2.50;2.15;;;;;;;17.72;41.70;102602.56;21074413;28;20044;-60
2023/01/08 16:24:58;;;;;;;2.38;2.17;;;;;;;17.75;41.56;102598.56;21073728;28;20036;-61
2023/01/08 16:34:59;;;;;;;1.95;1.85;;;;;;;17.71;41.38;102569.56;21087080;28;20852;-61
2023/01/08 16:45:04;;;;;;;2.85;2.55;;;;;;;17.75;41.44;102579.16;21088365;28;20047;-60
2023/01/08 16:55:06;;;;;;;2.50;2.30;;;;;;;17.14;41.26;102442.09;21087280;28;20040;-60
2023/01/08 17:05:07;;;;;;;2.17;1.98;;;;;;;17.76;41.59;102542.09;21086532;28;20036;-60
2023/01/08 17:15:17;;;;;;;3.10;2.40;;;;;;;17.63;41.47;102536.59;21085065;28;20432;-60
2023/01/08 17:25:18;;;;;;;2.55;2.35;;;;;;;17.75;41.48;102538.47;21085096;28;20040;-61
2023/01/08 17:35:20;;;;;;;3.22;2.72;;;;;;;17.75;41.58;102524.63;21084268;28;20036;-60
2023/01/08 17:45:24;;;;;;;2.78;2.33;;;;;;;17.77;41.11;102488.41;21083122;28;20040;-62
2023/01/08 17:55:26;;;;;;;2.85;2.50;;;;;;;17.77;41.21;102486.50;21082578;28;20036;-60
2023/01/08 18:05:27;;;;;;;3.33;2.50;;;;;;;17.71;41.34;102451.38;21081952;28;20040;-62
2023/01/08 18:15:28;;;;;;;2.80;2.53;;;;;;;17.74;41.30;102455.66;21081547;28;20036;-61
2023/01/08 18:25:30;;;;;;;3.45;2.80;;;;;;;17.74;41.37;102478.66;21080729;28;20395;-61
2023/01/08 18:35:31;;;;;;;2.75;2.55;;;;;;;17.75;41.61;102436.03;21079980;28;20036;-61
2023/01/08 18:45:37;;;;;;;3.20;2.90;;;;;;;17.76;41.49;102404.50;21079807;28;20448;-61
2023/01/08 18:55:41;;;;;;;2.53;2.33;;;;;;;17.75;41.08;102363.22;21071972;28;20101;-61
2023/01/08 19:05:48;;;;;;;2.97;2.67;;;;;;;17.74;41.05;102348.53;21078076;28;20441;-61
2023/01/08 19:15:49;;;;;;;2.92;2.22;;;;;;;17.75;41.34;102344.66;21041188;28;20045;-61
2023/01/08 19:25:54;;;;;;;3.10;2.58;;;;;;;17.62;41.46;102314.28;20992049;28;20028;-62
2023/01/08 19:36:11;;;;;;;3.08;2.50;;;;;;;17.72;41.35;102325.69;20992688;28;20044;-61
2023/01/08 19:46:14;;;;;;;2.58;2.38;;;;;;;17.73;40.92;102349.59;20993193;28;20052;-61
2023/01/08 19:56:15;;;;;;;2.60;2.40;;;;;;;17.74;41.26;102355.97;21075179;28;20040;-61
2023/01/08 20:06:22;;;;;;;2.78;2.50;;;;;;;17.73;41.02;102334.84;21085189;28;20074;-61
2023/01/08 20:16:24;;;;;;;3.05;2.75;;;;;;;17.73;41.05;102321.91;21090196;28;20101;-61
2023/01/08 20:26:33;;;;;;;2.97;2.65;;;;;;;17.72;41.20;102324.84;21090230;28;20098;-61
2023/01/08 20:36:39;;;;;;;2.78;2.55;;;;;;;17.64;40.96;102305.75;21089078;28;20044;-61
2023/01/08 20:46:42;;;;;;;3.15;2.85;;;;;;;17.71;41.04;102321.25;21088608;28;20052;-60
2023/01/08 20:56:43;;;;;;;2.95;2.65;;;;;;;17.64;41.29;102330.66;21087382;28;20036;-61
2023/01/08 21:06:45;;;;;;;3.20;2.90;;;;;;;17.70;40.99;102340.84;21086796;28;20113;-60
2023/01/08 21:16:46;;;;;;;2.97;2.78;;;;;;;17.70;41.07;102329.78;21085563;28;20052;-61
2023/01/08 21:26:47;;;;;;;3.38;2.92;;;;;;;17.70;40.78;102315.94;21085191;28;20040;-61
2023/01/08 21:36:49;;;;;;;2.70;2.50;;;;;;;17.65;40.90;102286.16;21084835;28;20043;-60
2023/01/08 21:46:53;;;;;;;2.78;2.58;;;;;;;17.68;40.80;102263.53;21082516;28;20040;-60
2023/01/08 21:56:54;;;;;;;2.80;2.58;;;;;;;17.68;40.90;102290.38;21082956;28;20560;-61
2023/01/08 22:06:56;;;;;;;2.67;2.47;;;;;;;17.68;40.89;102257.16;21081692;28;20043;-60
2023/01/08 22:16:57;;;;;;;2.58;2.33;;;;;;;17.65;41.01;102264.03;21081619;28;20450;-61
2023/01/08 22:27:01;;;;;;;3.17;2.60;;;;;;;17.64;40.68;102231.00;21079916;28;20044;-60
2023/01/08 22:37:05;;;;;;;2.85;2.63;;;;;;;17.65;40.87;102225.25;21080495;28;20032;-59
2023/01/08 22:47:08;;;;;;;2.60;2.40;;;;;;;17.63;40.77;102221.03;21079313;28;20044;-61
2023/01/08 22:57:12;;;;;;;3.25;2.95;;;;;;;17.64;40.68;102195.03;21078203;28;20078;-61
2023/01/08 23:07:19;;;;;;;2.85;2.55;;;;;;;17.63;40.84;102194.19;21077495;28;20032;-61
2023/01/08 23:17:20;;;;;;;2.80;2.60;;;;;;;17.59;41.13;102201.25;21077545;28;20043;-61
2023/01/08 23:27:22;;;;;;;2.60;2.40;;;;;;;17.51;40.89;102168.34;21076710;28;20020;-61
2023/01/08 23:37:23;;;;;;;2.70;2.42;;;;;;;17.61;40.73;102193.56;21082853;28;20040;-61
2023/01/08 23:47:25;;;;;;;2.55;2.35;;;;;;;17.60;40.99;102160.59;21103382;28;20044;-60
2023/01/08 23:57:26;;;;;;;2.55;2.35;;;;;;;17.59;41.13;102170.78;21035646;28;20055;-60
